Calatayud, Spain
Current Conditions -  °F | °C
As of 6:30 PM on Wednesday 26 Nov 2014 (Local Time) from LEZG Reporting Station
Broken Clouds Broken Clouds  
Wind Chill: 55°   Ceiling: 7000
Heat Index: 55°   Visibility: 6mi
Dew Point: 52°   Wind: 3mph
Humidity: 88%   Direction: 240°WSW
Pressure: 29.83"   Gusts: NA
Location:  41.35°N, 1.65°W
Report Text: LEZG 261730Z 24003KT 9999 SCT044 BKN070 13/11 Q1010
Loading
Personal Weather Stations






























Interactive Weather Map New forecast layout! Learn more

10-Day Weather Forecast

Advertisements
Track Severe Weather on mobile